ADDS METAR Data INFO
IDs: Format: Raw Decoded Include TAF

Data at: 1716 UTC 23 Oct 2017

KRQE 231653Z AUTO VRB03KT 10SM CLR 19/M06 A3050 RMK AO2 SLP263 T01891061 TSNO
KRQE 231553Z AUTO 00000KT 10SM CLR 10/M07 A3052 RMK AO2 SLP284 T01001072 TSNO
KRQE 231453Z AUTO 00000KT 10SM CLR 04/M08 A3051 RMK AO2 SLP291 T00391083 53007 TSNO
KRQE 231353Z AUTO 00000KT 10SM CLR M01/M10 A3048 RMK AO2 SLP284 T10111100 TSNO
KRQE 231253Z AUTO 00000KT 10SM CLR M02/M09 A3048 RMK AO2 SLP276 T10171094 TSNO
KRQE 231153Z AUTO 00000KT 10SM CLR M01/M09 A3048 RMK AO2 SLP261 T10061094 10033 21028 53006 TSNO
KRQE 231053Z AUTO 19004KT 10SM CLR M01/M09 A3048 RMK AO2 SLP255 T10111094 TSNO
KRQE 230953Z AUTO 00000KT 10SM CLR 02/M09 A3047 RMK AO2 SLP242 T00221089 TSNO
KRQE 230853Z AUTO 00000KT 10SM CLR M01/M10 A3046 RMK AO2 SLP250 T10111100 55005 TSNO
KRQE 230753Z AUTO 00000KT 10SM CLR M01/M10 A3046 RMK AO2 SLP253 T10111100 TSNO
KRQE 230653Z AUTO 00000KT 10SM CLR 00/M10 A3047 RMK AO2 SLP260 T00001100 402221056 TSNO
KRQE 230553Z AUTO 00000KT 10SM CLR 02/M08 A3048 RMK AO2 SLP263 T00221083 10200 20011 50006 TSNO
KRQE 230453Z AUTO 00000KT 10SM CLR 02/M09 A3048 RMK AO2 SLP275 T00221094 TSNO
KRQE 230353Z AUTO 20003KT 10SM CLR 06/M08 A3047 RMK AO2 SLP276 T00561078 TSNO
KRQE 230253Z AUTO 00000KT 10SM CLR 08/M07 A3046 RMK AO2 SLP276 T00781072 51009 TSNO
KRQE 230153Z AUTO 00000KT 10SM CLR 12/M07 A3045 RMK AO2 SLP280 T01221067 TSNO
KRQE 230053Z AUTO 35004KT 10SM CLR 14/M07 A3044 RMK AO2 SLP268 T01441067 TSNO
KRQE 222353Z AUTO 34009KT 10SM CLR 20/M07 A3043 RMK AO2 SLP249 T02001072 10222 20167 53003 TSNO
KRQE 222253Z AUTO 36008KT 10SM CLR 22/M08 A3042 RMK AO2 SLP241 T02171078 TSNO
KRQE 222153Z AUTO VRB06KT 10SM CLR 22/M07 A3041 RMK AO2 SLP236 T02171067 TSNO
KRQE 222053Z AUTO 32011KT 10SM CLR 22/M05 A3041 RMK AO2 SLP233 T02221050 56015 TSNO
KRQE 221953Z AUTO VRB03KT 10SM CLR 21/M06 A3043 RMK AO2 SLP247 T02061056 TSNO
KRQE 221853Z AUTO VRB03KT 10SM CLR 19/M06 A3045 RMK AO2 SLP238 T01891061 TSNO
KRQE 221753Z AUTO 00000KT 10SM CLR 17/M08 A3047 RMK AO2 SLP267 T01671083 10172 21056 50001 TSNO
KRQE 221653Z AUTO 19003KT 10SM CLR 12/M13 A3047 RMK AO2 SLP277 T01171133 TSNO
KRQE 221553Z AUTO 00000KT 10SM CLR 08/M15 A3047 RMK AO2 SLP286 T00781150 TSNO
KRQE 221453Z AUTO 00000KT 10SM CLR 03/M16 A3046 RMK AO2 SLP284 T00331161 53016 TSNO
KRQE 221353Z AUTO 18003KT 10SM CLR M04/M17 A3043 RMK AO2 SLP287 T10391172 TSNO
KRQE 221253Z AUTO 04004KT 10SM CLR M03/M17 A3041 RMK AO2 SLP272 T10331167 TSNO
KRQE 221153Z AUTO 00000KT 10SM CLR M04/M17 A3041 RMK AO2 SLP260 T10391172 10039 21050 50002 TSNO
KRQE 221053Z AUTO 00000KT 10SM CLR M03/M17 A3041 RMK AO2 SLP257 T10331167 TSNO
KRQE 220953Z AUTO 00000KT 10SM CLR M02/M17 A3041 RMK AO2 SLP252 T10221167 TSNO
KRQE 220853Z AUTO 00000KT 10SM CLR M01/M17 A3040 RMK AO2 SLP249 T10111167 53006 TSNO
KRQE 220753Z AUTO 19004KT 10SM CLR M03/M17 A3039 RMK AO2 SLP248 T10281167 TSNO
KRQE 220653Z AUTO 35004KT 10SM CLR 04/M16 A3037 RMK AO2 SLP228 T00391161 401501022 TSNO
KRQE 220553Z AUTO 20003KT 10SM CLR M02/M17 A3037 RMK AO2 SLP243 T10171167 10133 21022 51014 TSNO